createdAt,value
2023-03-11T00:00:46.984Z,16.50
2023-03-11T00:03:18.486Z,16.90
2023-03-11T00:05:47.645Z,16.40
2023-03-11T00:08:19.150Z,16.60
2023-03-11T00:10:52.865Z,16.30
2023-03-11T00:13:20.953Z,16.30
2023-03-11T00:15:51.929Z,16.30
2023-03-11T00:18:20.015Z,16.40
2023-03-11T00:20:48.436Z,16.40
2023-03-11T00:23:17.063Z,16.60
2023-03-11T00:25:48.083Z,16.20
2023-03-11T00:28:17.149Z,16.80
2023-03-11T00:30:47.074Z,16.60
2023-03-11T00:33:17.032Z,16.60
2023-03-11T00:35:45.553Z,16.40
2023-03-11T00:38:16.491Z,16.50
2023-03-11T00:40:46.936Z,16.20
2023-03-11T00:43:17.162Z,16.20
2023-03-11T00:45:45.277Z,16.50
2023-03-11T00:48:15.025Z,16.50
2023-03-11T00:50:43.472Z,16.60
2023-03-11T00:53:12.584Z,16.90
2023-03-11T00:55:40.641Z,16.70
2023-03-11T00:58:08.747Z,16.50
2023-03-11T01:00:38.334Z,16.70
2023-03-11T01:03:07.059Z,16.50
2023-03-11T01:05:36.221Z,16.50
2023-03-11T01:08:05.327Z,16.30
2023-03-11T01:10:34.811Z,16.30
2023-03-11T01:13:03.583Z,16.30
2023-03-11T01:15:35.939Z,16.20
2023-03-11T01:18:07.216Z,16.30
2023-03-11T01:20:36.114Z,16.30
2023-03-11T01:23:04.199Z,16.30
2023-03-11T01:25:32.314Z,16.30
2023-03-11T01:28:00.585Z,16.30
2023-03-11T01:30:30.557Z,16.90
2023-03-11T01:32:59.577Z,16.40
2023-03-11T01:35:32.137Z,16.60
2023-03-11T01:38:00.963Z,16.30
2023-03-11T01:40:33.602Z,16.40
2023-03-11T01:43:03.466Z,16.40
2023-03-11T01:46:03.077Z,16.50
2023-03-11T01:48:31.169Z,16.30
2023-03-11T01:51:01.833Z,16.40
2023-03-11T01:53:30.192Z,16.30
2023-03-11T01:55:58.934Z,16.40
2023-03-11T01:58:30.082Z,16.30
2023-03-11T02:00:58.494Z,16.60
2023-03-11T02:03:31.716Z,16.30
2023-03-11T02:06:04.328Z,16.40
2023-03-11T02:08:34.383Z,16.30
2023-03-11T02:11:06.408Z,16.50
2023-03-11T02:13:36.187Z,16.40
2023-03-11T02:16:05.960Z,16.60
2023-03-11T02:18:34.522Z,16.20
2023-03-11T02:21:14.885Z,16.40
2023-03-11T02:23:52.274Z,16.50
2023-03-11T02:26:25.593Z,16.50
2023-03-11T02:28:55.570Z,16.50
2023-03-11T02:31:25.019Z,16.30
2023-03-11T02:33:55.781Z,16.60
2023-03-11T02:36:36.239Z,16.40
2023-03-11T02:39:05.953Z,16.30
2023-03-11T02:41:36.854Z,16.50
2023-03-11T02:44:09.232Z,16.30
2023-03-11T02:46:38.379Z,16.50
2023-03-11T02:49:07.393Z,16.30
2023-03-11T02:51:35.371Z,16.30
2023-03-11T02:54:06.788Z,16.10
2023-03-11T02:56:34.841Z,16.40
2023-03-11T02:59:02.866Z,16.40
2023-03-11T03:01:32.569Z,16.50
2023-03-11T03:04:00.616Z,16.20
2023-03-11T03:06:29.130Z,16.30
2023-03-11T03:08:57.387Z,16.60
2023-03-11T03:11:25.473Z,15.90
2023-03-11T03:13:56.295Z,16.20
2023-03-11T03:16:24.348Z,16.40
2023-03-11T03:18:53.659Z,16.20
2023-03-11T03:21:21.653Z,16.20
2023-03-11T03:23:49.724Z,16.30
2023-03-11T03:26:17.770Z,16.20
2023-03-11T03:28:45.744Z,16.30
2023-03-11T03:31:13.949Z,16.50
2023-03-11T03:33:41.976Z,16.30
2023-03-11T03:36:14.971Z,16.10
2023-03-11T03:38:43.769Z,16.20
2023-03-11T03:41:14.439Z,16.30
2023-03-11T03:43:42.486Z,16.20
2023-03-11T03:46:10.594Z,16.40
2023-03-11T03:48:38.912Z,16.40
2023-03-11T03:51:09.658Z,16.20
2023-03-11T03:53:39.231Z,16.30
2023-03-11T03:56:10.359Z,16.40
2023-03-11T03:58:38.516Z,16.10
2023-03-11T04:01:08.135Z,16.40
2023-03-11T04:03:38.860Z,16.50
2023-03-11T04:06:09.251Z,16.30
2023-03-11T04:08:40.427Z,16.30
2023-03-11T04:11:08.368Z,16.40
2023-03-11T04:13:36.394Z,16.30
2023-03-11T04:16:05.388Z,16.40
2023-03-11T04:18:33.798Z,16.20
2023-03-11T04:21:06.022Z,16.20
2023-03-11T04:23:34.437Z,16.40
2023-03-11T04:26:03.795Z,16.30
2023-03-11T04:28:31.762Z,16.30
2023-03-11T04:30:59.777Z,16.40
2023-03-11T04:33:27.877Z,16.40
2023-03-11T04:35:55.854Z,16.20
2023-03-11T04:38:24.135Z,16.00
2023-03-11T04:40:52.090Z,15.90
2023-03-11T04:43:21.758Z,15.90
2023-03-11T04:45:52.040Z,16.40
2023-03-11T04:48:20.007Z,15.80
2023-03-11T04:50:48.006Z,16.40
2023-03-11T04:53:16.024Z,16.00
2023-03-11T04:55:43.963Z,16.10
2023-03-11T04:58:11.919Z,16.40
2023-03-11T05:00:41.266Z,16.40
2023-03-11T05:03:09.556Z,15.90
2023-03-11T05:05:37.745Z,15.90
2023-03-11T05:08:07.377Z,15.90
2023-03-11T05:10:35.402Z,16.10
2023-03-11T05:13:03.802Z,15.80
2023-03-11T05:15:31.812Z,15.80
2023-03-11T05:18:01.128Z,16.40
2023-03-11T05:20:29.084Z,15.80
2023-03-11T05:22:57.114Z,16.10
2023-03-11T05:25:25.631Z,16.00
2023-03-11T05:27:53.729Z,15.90
2023-03-11T05:30:21.717Z,16.30
2023-03-11T05:32:50.451Z,16.00
2023-03-11T05:35:20.617Z,15.90
2023-03-11T05:37:49.683Z,15.90
2023-03-11T05:40:18.987Z,16.30
2023-03-11T05:42:47.288Z,16.20
2023-03-11T05:45:15.869Z,15.90
2023-03-11T05:47:44.000Z,16.00
2023-03-11T05:50:15.026Z,16.30
2023-03-11T05:52:44.298Z,15.80
2023-03-11T05:55:12.433Z,15.90
2023-03-11T05:57:40.781Z,16.30
2023-03-11T06:00:12.334Z,16.30
2023-03-11T06:02:40.979Z,15.90
2023-03-11T06:05:13.330Z,15.80
2023-03-11T06:07:41.631Z,15.80
2023-03-11T06:10:13.206Z,15.90
2023-03-11T06:12:41.437Z,16.30
2023-03-11T06:15:10.375Z,15.80
2023-03-11T06:17:38.317Z,16.30
2023-03-11T06:20:08.104Z,15.80
2023-03-11T06:22:37.687Z,16.30
2023-03-11T06:25:08.187Z,15.90
2023-03-11T06:27:37.568Z,15.90
2023-03-11T06:30:07.290Z,16.20
2023-03-11T06:32:37.115Z,16.40
2023-03-11T06:35:05.856Z,16.10
2023-03-11T06:37:36.940Z,15.80
2023-03-11T06:40:07.408Z,16.20
2023-03-11T06:42:37.269Z,15.80
2023-03-11T06:45:06.223Z,15.90
2023-03-11T06:47:34.285Z,15.80
2023-03-11T06:50:06.419Z,15.90
2023-03-11T06:52:34.405Z,16.00
2023-03-11T06:55:03.549Z,15.90
2023-03-11T06:57:31.785Z,15.80
2023-03-11T07:00:01.079Z,16.30
2023-03-11T07:02:29.122Z,15.90
2023-03-11T07:04:57.065Z,15.90
2023-03-11T07:07:25.269Z,16.20
2023-03-11T07:09:57.577Z,16.10
2023-03-11T07:12:25.789Z,15.90
2023-03-11T07:14:56.917Z,15.80
2023-03-11T07:17:27.313Z,16.30
2023-03-11T07:19:55.615Z,15.90
2023-03-11T07:22:23.674Z,15.90
2023-03-11T07:24:51.805Z,16.40
2023-03-11T07:27:19.865Z,16.30
2023-03-11T07:29:47.954Z,16.20
2023-03-11T07:32:16.513Z,16.20
2023-03-11T07:34:45.887Z,16.20
2023-03-11T07:37:14.293Z,16.40
2023-03-11T07:39:42.359Z,16.10
2023-03-11T07:42:10.337Z,16.30
2023-03-11T07:44:38.525Z,16.40
2023-03-11T07:47:07.408Z,16.50
2023-03-11T07:49:35.364Z,16.20
2023-03-11T07:52:05.296Z,16.40
2023-03-11T07:54:33.309Z,16.30
2023-03-11T07:57:01.271Z,16.30
2023-03-11T07:59:29.272Z,16.50
2023-03-11T08:01:57.832Z,16.30
2023-03-11T08:04:25.833Z,16.60
2023-03-11T08:06:53.841Z,16.50
2023-03-11T08:09:23.262Z,17.00
2023-03-11T08:11:51.268Z,16.70
2023-03-11T08:14:19.220Z,16.90
2023-03-11T08:16:47.233Z,16.90
2023-03-11T08:19:15.567Z,16.40
2023-03-11T08:21:43.614Z,17.00
2023-03-11T08:24:14.726Z,17.10
2023-03-11T08:26:44.209Z,16.90
2023-03-11T08:29:12.225Z,17.00
2023-03-11T08:31:40.378Z,17.00
2023-03-11T08:34:11.160Z,17.00
2023-03-11T08:36:39.281Z,17.00
2023-03-11T08:39:07.673Z,16.90
2023-03-11T08:41:35.776Z,17.20
2023-03-11T08:44:05.465Z,17.00
2023-03-11T08:46:35.859Z,17.10
2023-03-11T08:49:04.994Z,17.10
2023-03-11T08:51:36.256Z,16.90
2023-03-11T08:54:04.981Z,17.00
2023-03-11T08:56:33.114Z,17.50
2023-03-11T08:59:01.166Z,17.20
2023-03-11T09:01:30.599Z,17.50
2023-03-11T09:03:58.648Z,17.70
2023-03-11T09:06:26.996Z,17.60
2023-03-11T09:08:55.005Z,17.70
2023-03-11T09:11:23.128Z,17.90
2023-03-11T09:13:51.917Z,17.70
2023-03-11T09:16:22.701Z,18.20
2023-03-11T09:18:52.119Z,18.40
2023-03-11T09:21:20.365Z,18.20
2023-03-11T09:23:48.960Z,18.00
2023-03-11T09:26:16.951Z,18.10
2023-03-11T09:28:48.742Z,18.10
2023-03-11T09:31:17.301Z,18.10
2023-03-11T09:33:47.056Z,18.20
2023-03-11T09:36:18.957Z,18.60
2023-03-11T09:38:47.263Z,18.20
2023-03-11T09:41:40.001Z,18.20
2023-03-11T09:44:19.851Z,18.20
2023-03-11T09:47:23.682Z,18.60
2023-03-11T09:50:21.975Z,18.60
2023-03-11T09:53:05.066Z,18.80
2023-03-11T09:55:41.194Z,18.50
2023-03-11T09:58:19.132Z,18.60
2023-03-11T10:00:47.885Z,18.50
2023-03-11T10:03:28.634Z,18.30
2023-03-11T10:06:06.074Z,18.80
2023-03-11T10:08:44.891Z,18.60
2023-03-11T10:11:27.843Z,19.00
2023-03-11T10:14:11.875Z,18.80
2023-03-11T10:16:51.305Z,18.90
2023-03-11T10:19:33.627Z,19.00
2023-03-11T10:22:13.702Z,18.90
2023-03-11T10:25:05.863Z,19.00
2023-03-11T10:27:42.242Z,18.70
2023-03-11T10:30:21.698Z,18.80
2023-03-11T10:32:56.017Z,19.10
2023-03-11T10:35:29.871Z,18.60
2023-03-11T10:38:04.622Z,18.80
2023-03-11T10:40:38.079Z,19.00
2023-03-11T10:43:19.004Z,19.10
2023-03-11T10:45:50.887Z,19.00
2023-03-11T10:48:21.430Z,18.80
2023-03-11T10:50:55.398Z,19.00
2023-03-11T10:53:23.898Z,18.90
2023-03-11T10:55:55.539Z,19.30
2023-03-11T10:58:27.611Z,19.10
2023-03-11T11:01:05.779Z,19.30
2023-03-11T11:03:34.843Z,19.50
2023-03-11T11:06:06.849Z,19.40
2023-03-11T11:08:35.343Z,19.50
2023-03-11T11:11:05.663Z,19.40
2023-03-11T11:13:35.706Z,19.40
2023-03-11T11:16:06.236Z,19.60
2023-03-11T11:18:37.908Z,19.20
2023-03-11T11:21:09.599Z,18.90
2023-03-11T11:23:42.388Z,19.10
2023-03-11T11:26:20.443Z,19.10
2023-03-11T11:29:09.040Z,18.90
2023-03-11T11:31:38.281Z,19.30
2023-03-11T11:34:29.858Z,19.10
2023-03-11T11:37:00.421Z,18.80
2023-03-11T11:39:31.961Z,19.00
2023-03-11T11:42:02.959Z,19.20
2023-03-11T11:44:35.074Z,18.90
2023-03-11T11:47:11.502Z,19.00
2023-03-11T11:49:51.226Z,18.70
2023-03-11T11:52:23.701Z,18.60
2023-03-11T11:54:55.810Z,18.70
2023-03-11T11:57:26.222Z,18.80
2023-03-11T11:59:56.465Z,19.00
2023-03-11T12:02:43.559Z,18.50
2023-03-11T12:05:16.198Z,19.00
2023-03-11T12:08:10.467Z,19.00
2023-03-11T12:10:43.810Z,19.20
2023-03-11T12:14:00.477Z,19.20
2023-03-11T12:16:41.288Z,19.00
2023-03-11T12:19:20.774Z,18.90
2023-03-11T12:22:33.220Z,19.00
2023-03-11T12:25:21.854Z,19.10
2023-03-11T12:27:55.545Z,19.10
2023-03-11T12:30:30.139Z,19.00
2023-03-11T12:33:02.565Z,18.80
2023-03-11T12:35:34.411Z,19.00
2023-03-11T12:38:18.997Z,18.90
2023-03-11T12:41:02.036Z,18.90
2023-03-11T12:44:03.364Z,18.70
2023-03-11T12:47:32.017Z,18.70
2023-03-11T12:50:40.509Z,19.00
2023-03-11T12:53:18.566Z,19.10
2023-03-11T12:56:06.565Z,19.10
2023-03-11T12:59:09.555Z,19.10
2023-03-11T13:02:06.589Z,18.80
2023-03-11T13:04:58.705Z,18.90
2023-03-11T13:07:49.448Z,19.10
2023-03-11T13:10:36.680Z,19.10
2023-03-11T13:13:30.368Z,19.20
2023-03-11T13:15:59.406Z,19.60
2023-03-11T13:18:30.353Z,19.20
2023-03-11T13:20:59.760Z,19.50
2023-03-11T13:23:34.725Z,19.10
2023-03-11T13:26:34.606Z,19.30
2023-03-11T13:29:40.455Z,19.20
2023-03-11T13:32:33.016Z,19.20
2023-03-11T13:35:18.024Z,19.20
2023-03-11T13:37:57.852Z,19.50
2023-03-11T13:40:36.662Z,19.50
2023-03-11T13:43:08.780Z,19.50
2023-03-11T13:45:39.476Z,19.70
2023-03-11T13:48:15.961Z,19.40
2023-03-11T13:50:49.188Z,19.60
2023-03-11T13:53:22.501Z,19.50
2023-03-11T13:55:51.997Z,19.60
2023-03-11T13:58:23.603Z,19.50
2023-03-11T14:00:54.173Z,20.10
2023-03-11T14:03:25.305Z,19.60
2023-03-11T14:06:00.018Z,19.80
2023-03-11T14:08:31.558Z,19.90
2023-03-11T14:11:02.713Z,19.90
2023-03-11T14:13:32.610Z,19.90
2023-03-11T14:16:07.078Z,20.30
2023-03-11T14:18:38.950Z,20.70
2023-03-11T14:21:13.482Z,20.30
2023-03-11T14:23:44.723Z,19.70
2023-03-11T14:26:19.767Z,19.80
2023-03-11T14:28:52.125Z,19.80
2023-03-11T14:31:27.262Z,19.80
2023-03-11T14:33:58.433Z,19.90
2023-03-11T14:36:26.426Z,19.60
2023-03-11T14:38:54.380Z,19.70
2023-03-11T14:41:23.974Z,19.70
2023-03-11T14:43:55.609Z,19.80
2023-03-11T14:46:28.961Z,19.70
2023-03-11T14:48:59.138Z,19.70
2023-03-11T14:51:33.283Z,19.80
2023-03-11T14:54:09.381Z,19.70
2023-03-11T14:56:42.368Z,19.60
2023-03-11T14:59:16.322Z,19.80
2023-03-11T15:01:46.571Z,19.80
2023-03-11T15:04:23.704Z,19.80
2023-03-11T15:06:51.902Z,19.80
2023-03-11T15:09:22.134Z,20.00
2023-03-11T15:11:55.076Z,20.50
2023-03-11T15:14:25.195Z,20.10
2023-03-11T15:16:55.062Z,20.10
2023-03-11T15:19:34.381Z,20.20
2023-03-11T15:22:24.498Z,20.20
2023-03-11T15:24:54.903Z,19.80
2023-03-11T15:27:31.315Z,20.50
2023-03-11T15:30:00.983Z,19.90
2023-03-11T15:32:41.860Z,19.80
2023-03-11T15:35:17.902Z,20.10
2023-03-11T15:40:32.529Z,19.90
2023-03-11T15:43:25.230Z,19.80
2023-03-11T15:45:55.086Z,19.90
2023-03-11T15:48:23.910Z,19.70
2023-03-11T15:50:54.986Z,19.80
2023-03-11T15:53:26.257Z,19.70
2023-03-11T15:56:03.535Z,19.70
2023-03-11T15:58:37.421Z,19.60
2023-03-11T16:01:05.733Z,19.40
2023-03-11T16:03:33.703Z,19.60
2023-03-11T16:06:01.653Z,19.50
2023-03-11T16:08:29.605Z,19.50
2023-03-11T16:10:57.990Z,19.60
2023-03-11T16:13:26.244Z,19.50
2023-03-11T16:15:55.643Z,19.40
2023-03-11T16:18:23.920Z,19.30
2023-03-11T16:20:54.258Z,19.20
2023-03-11T16:23:25.757Z,19.10
2023-03-11T16:25:58.095Z,19.00
2023-03-11T16:28:26.360Z,19.20
2023-03-11T16:30:56.502Z,19.00
2023-03-11T16:33:24.859Z,19.10
2023-03-11T16:35:52.935Z,19.10
2023-03-11T16:38:23.037Z,19.10
2023-03-11T16:40:58.374Z,19.00
2023-03-11T16:43:26.901Z,19.20
2023-03-11T16:45:56.660Z,19.00
2023-03-11T16:48:25.282Z,18.90
2023-03-11T16:50:53.284Z,19.00
2023-03-11T16:53:21.858Z,19.10
2023-03-11T16:55:50.120Z,18.80
2023-03-11T16:58:18.305Z,18.80
2023-03-11T17:00:47.068Z,18.80
2023-03-11T17:03:21.524Z,19.00
2023-03-11T17:05:50.396Z,18.70
2023-03-11T17:08:18.656Z,18.70
2023-03-11T17:10:47.179Z,18.70
2023-03-11T17:13:18.829Z,18.20
2023-03-11T17:15:47.138Z,18.50
2023-03-11T17:18:16.498Z,18.40
2023-03-11T17:20:45.576Z,18.40
2023-03-11T17:23:13.578Z,18.30
2023-03-11T17:25:42.537Z,18.20
2023-03-11T17:28:10.999Z,18.10
2023-03-11T17:30:43.338Z,18.40
2023-03-11T17:33:11.421Z,18.40
2023-03-11T17:35:41.145Z,18.40
2023-03-11T17:38:09.234Z,18.10
2023-03-11T17:40:38.192Z,18.10
2023-03-11T17:43:06.179Z,18.10
2023-03-11T17:45:34.136Z,18.00
2023-03-11T17:48:02.180Z,18.00
2023-03-11T17:50:30.185Z,18.20
2023-03-11T17:52:59.475Z,18.10
2023-03-11T17:55:27.551Z,17.70
2023-03-11T17:57:55.536Z,17.70
2023-03-11T18:00:23.769Z,17.60
2023-03-11T18:02:51.901Z,17.60
2023-03-11T18:05:20.103Z,18.00
2023-03-11T18:07:48.327Z,17.60
2023-03-11T18:10:18.233Z,17.80
2023-03-11T18:12:48.132Z,17.60
2023-03-11T18:15:19.000Z,18.00
2023-03-11T18:17:48.065Z,17.70
2023-03-11T18:20:17.160Z,17.50
2023-03-11T18:22:46.693Z,17.70
2023-03-11T18:25:16.863Z,17.80
2023-03-11T18:27:44.861Z,17.60
2023-03-11T18:30:14.361Z,17.60
2023-03-11T18:32:42.691Z,17.50
2023-03-11T18:35:11.207Z,17.50
2023-03-11T18:37:39.143Z,17.60
2023-03-11T18:40:08.941Z,17.60
2023-03-11T18:42:38.245Z,17.60
2023-03-11T18:45:07.545Z,17.60
2023-03-11T18:47:36.118Z,17.60
2023-03-11T18:50:04.270Z,17.60
2023-03-11T18:52:32.263Z,17.60
2023-03-11T18:55:00.299Z,17.60
2023-03-11T18:57:28.295Z,17.60
2023-03-11T18:59:57.634Z,17.40
2023-03-11T19:02:26.072Z,17.60
2023-03-11T19:04:54.372Z,17.60
2023-03-11T19:07:22.537Z,17.50
2023-03-11T19:09:50.658Z,17.50
2023-03-11T19:12:18.710Z,17.50
2023-03-11T19:14:46.693Z,17.40
2023-03-11T19:17:18.214Z,17.30
2023-03-11T19:19:46.425Z,17.50
2023-03-11T19:22:14.442Z,17.30
2023-03-11T19:24:42.795Z,17.20
2023-03-11T19:27:10.778Z,17.20
2023-03-11T19:29:38.720Z,17.40
2023-03-11T19:32:07.319Z,17.00
2023-03-11T19:34:36.970Z,17.60
2023-03-11T19:37:04.986Z,17.10
2023-03-11T19:39:32.992Z,17.10
2023-03-11T19:42:01.056Z,17.50
2023-03-11T19:44:29.038Z,17.30
2023-03-11T19:46:57.043Z,17.20
2023-03-11T19:49:25.098Z,17.20
2023-03-11T19:51:55.953Z,17.30
2023-03-11T19:54:24.094Z,17.10
2023-03-11T19:56:52.084Z,17.10
2023-03-11T19:59:20.078Z,17.20
2023-03-11T20:01:48.157Z,17.20
2023-03-11T20:04:16.345Z,17.20
2023-03-11T20:06:45.001Z,17.10
2023-03-11T20:09:16.042Z,17.30
2023-03-11T20:11:45.462Z,16.90
2023-03-11T20:14:14.560Z,17.00
2023-03-11T20:16:42.954Z,17.30
2023-03-11T20:19:11.134Z,17.10
2023-03-11T20:21:40.729Z,17.30
2023-03-11T20:24:10.029Z,16.90
2023-03-11T20:26:39.711Z,17.00
2023-03-11T20:29:08.129Z,17.20
2023-03-11T20:31:36.405Z,17.20
2023-03-11T20:34:04.811Z,17.20
2023-03-11T20:36:34.673Z,17.20
2023-03-11T20:39:03.921Z,17.10
2023-03-11T20:41:38.030Z,17.20
2023-03-11T20:44:09.619Z,17.30
2023-03-11T20:46:37.768Z,17.10
2023-03-11T20:49:06.023Z,17.10
2023-03-11T20:51:34.314Z,17.10
2023-03-11T20:54:02.308Z,17.30
2023-03-11T20:56:30.398Z,17.30
2023-03-11T20:59:00.745Z,17.20
2023-03-11T21:01:32.440Z,17.20
2023-03-11T21:04:02.972Z,17.30
2023-03-11T21:06:34.518Z,17.20
2023-03-11T21:09:05.623Z,17.10
2023-03-11T21:11:34.231Z,17.20
2023-03-11T21:14:02.356Z,17.10
2023-03-11T21:16:32.470Z,17.10
2023-03-11T21:19:05.246Z,17.10
2023-03-11T21:21:33.610Z,16.90
2023-03-11T21:24:01.768Z,17.20
2023-03-11T21:26:29.913Z,17.10
2023-03-11T21:28:58.050Z,17.10
2023-03-11T21:31:29.291Z,17.00
2023-03-11T21:34:01.214Z,17.20
2023-03-11T21:36:30.354Z,17.10
2023-03-11T21:38:58.457Z,16.80
2023-03-11T21:41:28.224Z,17.00
2023-03-11T21:43:57.974Z,17.10
2023-03-11T21:46:30.523Z,17.10
2023-03-11T21:49:00.724Z,17.00
2023-03-11T21:51:29.673Z,17.10
2023-03-11T21:53:59.029Z,17.10
2023-03-11T21:56:27.517Z,17.10
2023-03-11T21:58:55.587Z,17.20
2023-03-11T22:01:23.838Z,17.10
2023-03-11T22:03:52.029Z,17.10
2023-03-11T22:06:21.979Z,17.10
2023-03-11T22:08:50.590Z,17.10
2023-03-11T22:11:20.476Z,17.10
2023-03-11T22:13:51.588Z,17.10
2023-03-11T22:16:20.973Z,17.00
2023-03-11T22:18:50.052Z,17.10
2023-03-11T22:21:20.517Z,17.10
2023-03-11T22:23:50.113Z,17.00
2023-03-11T22:26:18.342Z,17.10
2023-03-11T22:28:46.341Z,17.20
2023-03-11T22:31:18.398Z,17.10
2023-03-11T22:33:47.188Z,17.20
2023-03-11T22:36:15.337Z,17.20
2023-03-11T22:38:44.873Z,17.00
2023-03-11T22:41:16.716Z,17.20
2023-03-11T22:43:44.706Z,17.10
2023-03-11T22:46:12.785Z,17.00
2023-03-11T22:48:40.946Z,17.10
2023-03-11T22:51:09.322Z,16.80
2023-03-11T22:53:37.503Z,17.00
2023-03-11T22:56:12.479Z,17.10
2023-03-11T22:58:42.302Z,17.20
2023-03-11T23:01:10.966Z,17.00
2023-03-11T23:03:39.666Z,16.80
2023-03-11T23:06:11.275Z,17.10
2023-03-11T23:08:39.271Z,17.00
2023-03-11T23:11:10.219Z,17.10
2023-03-11T23:13:38.849Z,17.10
2023-03-11T23:16:12.052Z,17.10
2023-03-11T23:18:40.074Z,16.80
2023-03-11T23:21:17.288Z,17.00
2023-03-11T23:23:46.210Z,17.10
2023-03-11T23:26:15.117Z,17.10
2023-03-11T23:28:43.768Z,17.00
2023-03-11T23:31:16.016Z,17.10
2023-03-11T23:33:45.043Z,17.00
2023-03-11T23:36:16.045Z,17.20
2023-03-11T23:38:44.934Z,17.20
2023-03-11T23:41:16.059Z,17.20
2023-03-11T23:43:44.623Z,17.10
2023-03-11T23:46:15.130Z,16.90
2023-03-11T23:48:43.318Z,17.10
2023-03-11T23:51:11.564Z,17.00
2023-03-11T23:53:40.244Z,17.10
2023-03-11T23:56:14.478Z,17.10
2023-03-11T23:58:42.790Z,17.10
